Time;durP1;ratioP1;P1;durP2;ratioP2;P2;SDS_P1;SDS_P2;PMS_P1;PMS_P2;Temp;Humidity;BMP_temperature;BMP_pressure;BME280_temperature;BME280_humidity;BME280_pressure;Samples;Min_cycle;Max_cycle;Signal;HPM_P1;HPM_P2
2021/03/11 00:00:00;;;;;;;22.90;11.60;;;8.60;54.20;;;;;;5038566;28;20934;-69
2021/03/11 00:02:25;;;;;;;24.20;12.63;;;8.60;54.10;;;;;;5044767;28;20638;-69
2021/03/11 00:04:51;;;;;;;19.97;11.20;;;8.60;54.40;;;;;;5018908;28;20212;-68
2021/03/11 00:07:17;;;;;;;23.10;12.33;;;8.60;54.20;;;;;;5044909;28;20183;-70
2021/03/11 00:09:43;;;;;;;23.67;11.57;;;8.60;54.40;;;;;;5048556;28;20180;-70
2021/03/11 00:12:09;;;;;;;22.70;11.47;;;8.60;54.60;;;;;;5048711;28;20208;-71
2021/03/11 00:14:38;;;;;;;22.70;12.07;;;8.60;54.80;;;;;;5048892;28;20246;-69
2021/03/11 00:17:05;;;;;;;20.40;12.50;;;8.60;54.60;;;;;;5028298;28;20462;-70
2021/03/11 00:19:31;;;;;;;25.13;12.37;;;8.60;54.60;;;;;;5047641;28;21106;-68
2021/03/11 00:21:57;;;;;;;22.80;11.43;;;8.60;54.80;;;;;;5027963;28;20430;-69
2021/03/11 00:24:24;;;;;;;23.80;11.30;;;8.60;54.60;;;;;;5047237;28;20454;-70
2021/03/11 00:26:50;;;;;;;26.03;12.10;;;8.70;54.50;;;;;;5018140;28;20835;-70
2021/03/11 00:29:15;;;;;;;21.93;11.27;;;8.70;54.60;;;;;;5028927;28;20512;-69
2021/03/11 00:31:41;;;;;;;22.03;12.13;;;8.70;54.80;;;;;;5029041;28;20631;-72
2021/03/11 00:34:07;;;;;;;20.83;10.73;;;8.70;54.90;;;;;;5028994;28;20213;-70
2021/03/11 00:36:33;;;;;;;20.37;11.20;;;8.80;54.90;;;;;;5027341;28;20189;-69
2021/03/11 00:38:58;;;;;;;28.50;11.60;;;8.80;55.00;;;;;;5043614;28;20245;-70
2021/03/11 00:41:24;;;;;;;24.80;11.73;;;8.80;55.20;;;;;;5032320;28;20181;-70
2021/03/11 00:43:53;;;;;;;21.83;12.00;;;8.80;55.00;;;;;;5029323;28;20216;-70
2021/03/11 00:46:20;;;;;;;18.40;10.50;;;8.90;54.90;;;;;;5028124;28;20209;-70
2021/03/11 00:48:45;;;;;;;20.73;11.20;;;8.90;54.90;;;;;;5029548;28;20934;-69
2021/03/11 00:51:11;;;;;;;20.07;11.20;;;8.90;55.00;;;;;;5039226;28;20493;-69
2021/03/11 00:53:37;;;;;;;23.50;11.07;;;8.80;55.20;;;;;;5053823;28;20208;-69
2021/03/11 00:56:03;;;;;;;22.40;10.67;;;8.80;55.60;;;;;;5035862;28;20181;-71
2021/03/11 00:58:28;;;;;;;21.33;11.23;;;8.90;55.40;;;;;;5040021;28;20266;-70
2021/03/11 01:00:54;;;;;;;17.73;9.63;;;8.90;55.40;;;;;;5037503;28;20515;-68
2021/03/11 01:03:20;;;;;;;21.70;10.23;;;8.90;55.60;;;;;;5048101;28;20601;-70
2021/03/11 01:05:46;;;;;;;20.37;10.63;;;8.80;55.70;;;;;;5030481;28;20710;-69
2021/03/11 01:08:12;;;;;;;21.83;10.47;;;8.90;55.70;;;;;;5047655;28;20427;-70
2021/03/11 01:10:38;;;;;;;22.07;11.37;;;8.80;56.00;;;;;;5046240;28;20185;-68
2021/03/11 01:13:04;;;;;;;22.33;10.70;;;8.80;56.00;;;;;;5045872;28;20203;-70
2021/03/11 01:15:38;;;;;;;24.77;11.37;;;8.90;55.80;;;;;;5051412;28;20433;-71
2021/03/11 01:18:05;;;;;;;19.80;10.17;;;8.90;56.10;;;;;;5051813;28;20433;-71
2021/03/11 01:20:31;;;;;;;22.50;11.20;;;8.90;56.40;;;;;;5040191;28;20428;-72
2021/03/11 01:22:57;;;;;;;24.87;11.90;;;8.80;56.50;;;;;;5027968;28;20455;-72
2021/03/11 01:25:23;;;;;;;19.67;10.57;;;8.90;56.60;;;;;;5031209;28;20459;-72
2021/03/11 01:27:49;;;;;;;22.83;11.70;;;8.80;56.50;;;;;;5033335;28;20215;-72
2021/03/11 01:30:15;;;;;;;22.90;11.47;;;8.80;56.80;;;;;;5052589;28;20193;-71
2021/03/11 01:32:41;;;;;;;18.50;10.30;;;8.80;56.60;;;;;;5052873;28;20208;-69
2021/03/11 01:35:08;;;;;;;20.83;9.73;;;8.80;56.90;;;;;;5031314;28;20436;-70
2021/03/11 01:37:33;;;;;;;16.80;9.23;;;8.80;57.20;;;;;;5033291;28;20189;-70
2021/03/11 01:39:59;;;;;;;19.70;10.20;;;8.90;57.20;;;;;;5058653;28;20824;-71
2021/03/11 01:42:25;;;;;;;17.17;8.60;;;8.90;57.30;;;;;;5056489;28;20725;-71
2021/03/11 01:44:51;;;;;;;19.10;8.87;;;8.80;57.70;;;;;;5044273;28;21039;-71
2021/03/11 01:47:16;;;;;;;18.17;8.23;;;8.90;58.00;;;;;;5062113;28;20203;-70
2021/03/11 01:49:42;;;;;;;18.13;8.80;;;8.90;58.10;;;;;;5058453;28;20207;-71
2021/03/11 01:52:08;;;;;;;17.83;8.73;;;8.90;58.40;;;;;;5052180;28;20208;-70
2021/03/11 01:54:35;;;;;;;16.20;7.90;;;9.00;58.40;;;;;;5042405;28;20193;-71
2021/03/11 01:57:01;;;;;;;13.83;7.60;;;9.00;58.50;;;;;;5033965;28;20943;-71
2021/03/11 01:59:28;;;;;;;14.67;7.07;;;9.00;59.10;;;;;;5051887;28;20450;-71
2021/03/11 02:01:56;;;;;;;12.60;6.20;;;9.00;60.00;;;;;;5051518;28;20854;-70
2021/03/11 02:04:21;;;;;;;11.90;6.00;;;9.00;60.30;;;;;;5052125;28;20764;-70
2021/03/11 02:06:47;;;;;;;15.33;5.87;;;9.00;60.90;;;;;;5052964;28;20430;-70
2021/03/11 02:09:13;;;;;;;14.00;5.50;;;9.00;61.20;;;;;;5048588;28;20189;-71
2021/03/11 02:11:43;;;;;;;13.57;5.43;;;9.00;61.50;;;;;;5050466;28;20264;-70
2021/03/11 02:14:18;;;;;;;10.10;5.20;;;9.00;61.60;;;;;;5031612;28;20196;-72
2021/03/11 02:16:57;;;;;;;8.50;5.43;;;9.00;61.90;;;;;;5047120;28;20431;-69
2021/03/11 02:19:47;;;;;;;10.50;5.10;;;9.00;61.90;;;;;;5034324;28;20461;-71
2021/03/11 02:22:21;;;;;;;15.60;6.07;;;9.10;61.70;;;;;;5021235;28;20831;-71
2021/03/11 02:24:59;;;;;;;12.33;5.90;;;9.00;61.70;;;;;;5040228;28;20455;-71
2021/03/11 02:27:54;;;;;;;15.40;4.87;;;9.00;61.90;;;;;;5040145;28;20939;-71
2021/03/11 02:30:20;;;;;;;9.93;5.10;;;9.00;61.90;;;;;;5018945;28;20775;-71
2021/03/11 02:32:47;;;;;;;10.97;5.40;;;9.00;61.90;;;;;;5045145;28;20431;-70
2021/03/11 02:35:14;;;;;;;10.93;5.47;;;9.10;61.60;;;;;;5041507;28;20181;-71
2021/03/11 02:37:46;;;;;;;13.47;6.67;;;9.10;61.60;;;;;;5043993;28;20430;-69
2021/03/11 02:40:27;;;;;;;7.43;4.70;;;9.10;62.00;;;;;;5039823;28;20937;-70
2021/03/11 02:42:55;;;;;;;10.90;6.13;;;9.10;61.70;;;;;;5050538;28;20495;-70
2021/03/11 02:45:25;;;;;;;14.07;6.33;;;9.20;61.30;;;;;;5038091;28;20560;-69
2021/03/11 02:47:51;;;;;;;11.30;6.33;;;9.30;60.90;;;;;;5036023;28;20425;-71
2021/03/11 02:50:18;;;;;;;10.60;6.13;;;9.30;60.00;;;;;;5038603;28;20461;-70
2021/03/11 02:52:44;;;;;;;11.47;6.27;;;9.30;59.90;;;;;;5030414;28;20444;-69
2021/03/11 02:55:11;;;;;;;14.20;6.40;;;9.30;59.90;;;;;;5040897;28;20948;-71
2021/03/11 02:57:38;;;;;;;10.43;6.10;;;9.20;59.20;;;;;;5046618;28;20428;-70
2021/03/11 03:00:09;;;;;;;13.70;6.77;;;9.20;59.60;;;;;;5044632;28;20442;-71
2021/03/11 03:02:37;;;;;;;13.57;6.03;;;9.20;60.40;;;;;;5052980;28;20439;-71
2021/03/11 03:05:04;;;;;;;10.00;5.70;;;9.10;59.60;;;;;;5051602;28;20463;-71
2021/03/11 03:07:31;;;;;;;13.27;6.63;;;9.20;59.60;;;;;;5046064;28;20420;-70
2021/03/11 03:09:57;;;;;;;13.50;6.87;;;9.20;59.20;;;;;;5050886;28;20449;-71
2021/03/11 03:12:24;;;;;;;10.40;6.20;;;9.20;58.50;;;;;;5041099;28;20446;-71
2021/03/11 03:14:53;;;;;;;12.03;6.60;;;9.30;58.10;;;;;;5038772;28;20428;-70
2021/03/11 03:17:21;;;;;;;15.73;7.20;;;9.20;58.20;;;;;;5046780;28;20432;-70
2021/03/11 03:19:48;;;;;;;11.77;6.40;;;9.20;58.50;;;;;;5036196;28;20844;-70
2021/03/11 03:22:15;;;;;;;12.93;6.70;;;9.20;58.40;;;;;;5016479;28;20531;-70
2021/03/11 03:24:44;;;;;;;12.80;6.50;;;9.30;58.20;;;;;;5039307;28;20455;-70
2021/03/11 03:27:11;;;;;;;10.70;5.63;;;9.30;57.80;;;;;;5041056;28;20440;-70
2021/03/11 03:29:37;;;;;;;14.23;7.10;;;9.30;57.80;;;;;;5045791;28;20565;-70
2021/03/11 03:32:04;;;;;;;13.30;6.50;;;9.30;58.40;;;;;;5049908;28;20430;-69
2021/03/11 03:34:29;;;;;;;10.70;5.80;;;9.40;59.30;;;;;;5036079;28;20420;-69
2021/03/11 03:36:55;;;;;;;12.23;6.70;;;9.30;59.60;;;;;;5030412;28;20872;-72
2021/03/11 03:39:21;;;;;;;19.53;6.57;;;9.30;60.40;;;;;;5046173;28;20238;-70
2021/03/11 03:41:50;;;;;;;13.00;6.97;;;9.30;60.60;;;;;;5050471;28;20250;-70
2021/03/11 03:44:19;;;;;;;13.50;7.17;;;9.30;60.90;;;;;;5050115;28;20987;-71
2021/03/11 03:46:47;;;;;;;11.23;5.40;;;9.30;60.90;;;;;;5040999;28;20518;-72
2021/03/11 03:49:16;;;;;;;11.17;6.20;;;9.20;60.70;;;;;;5030736;28;20459;-71
2021/03/11 03:51:46;;;;;;;14.43;5.87;;;9.30;61.00;;;;;;5039778;28;20423;-72
2021/03/11 03:54:17;;;;;;;11.30;5.70;;;9.20;60.90;;;;;;5047052;28;20439;-71
2021/03/11 03:56:48;;;;;;;11.57;5.80;;;9.20;61.00;;;;;;5050058;28;20436;-72
2021/03/11 03:59:18;;;;;;;11.13;5.63;;;9.30;61.60;;;;;;5045460;28;20427;-72
2021/03/11 04:01:44;;;;;;;15.23;5.50;;;9.40;61.60;;;;;;5031581;28;20438;-71
2021/03/11 04:04:13;;;;;;;11.00;4.90;;;9.40;61.50;;;;;;5032851;28;20918;-70
2021/03/11 04:06:40;;;;;;;9.93;5.23;;;9.40;61.50;;;;;;5029659;28;20550;-69
2021/03/11 04:09:11;;;;;;;7.80;4.50;;;9.50;61.50;;;;;;5033183;28;20424;-70
2021/03/11 04:11:41;;;;;;;8.80;4.60;;;9.50;61.70;;;;;;5032098;28;20432;-69
2021/03/11 04:14:09;;;;;;;8.73;4.70;;;9.60;61.90;;;;;;5032667;28;20454;-69
2021/03/11 04:16:35;;;;;;;7.23;4.40;;;9.60;62.50;;;;;;5030101;28;20452;-70
2021/03/11 04:19:03;;;;;;;12.50;5.47;;;9.60;62.30;;;;;;5038896;28;21003;-71
2021/03/11 04:21:30;;;;;;;8.50;4.70;;;9.70;63.80;;;;;;5034947;28;20950;-69
2021/03/11 04:23:57;;;;;;;7.60;4.50;;;9.70;63.80;;;;;;5029720;28;20451;-69
2021/03/11 04:26:23;;;;;;;7.77;4.10;;;9.80;65.00;;;;;;5041348;28;20470;-70
2021/03/11 04:28:49;;;;;;;7.00;3.70;;;9.90;65.80;;;;;;5041432;28;20932;-70
2021/03/11 04:31:16;;;;;;;8.47;4.23;;;10.00;65.80;;;;;;5051140;28;20418;-69
2021/03/11 04:33:43;;;;;;;12.93;3.80;;;10.10;65.80;;;;;;5041289;28;20860;-69
2021/03/11 04:36:10;;;;;;;6.43;3.87;;;10.10;65.80;;;;;;5036705;28;20436;-69
2021/03/11 04:38:36;;;;;;;8.07;3.60;;;10.20;66.00;;;;;;5052972;28;21020;-70
2021/03/11 04:41:04;;;;;;;6.33;3.63;;;10.20;66.00;;;;;;5051433;28;20466;-69
2021/03/11 04:43:30;;;;;;;8.37;3.83;;;10.20;66.10;;;;;;5051188;28;20902;-69
2021/03/11 04:45:56;;;;;;;4.80;3.17;;;10.20;66.40;;;;;;5037696;28;20466;-69
2021/03/11 04:48:23;;;;;;;13.93;3.97;;;10.20;66.40;;;;;;5052549;28;20475;-69
2021/03/11 04:50:49;;;;;;;8.77;4.30;;;10.20;66.70;;;;;;5035127;28;20439;-69
2021/03/11 04:53:15;;;;;;;12.80;4.47;;;10.30;66.70;;;;;;5032748;28;20885;-70
2021/03/11 04:55:43;;;;;;;7.33;3.43;;;10.30;66.90;;;;;;5041844;28;20505;-69
2021/03/11 04:58:09;;;;;;;6.53;3.63;;;10.30;67.00;;;;;;5032293;28;20436;-71
2021/03/11 05:00:37;;;;;;;9.30;3.67;;;10.30;67.20;;;;;;5045741;28;20440;-70
2021/03/11 05:03:07;;;;;;;7.40;3.80;;;10.30;67.30;;;;;;5042742;28;20473;-70
2021/03/11 05:05:35;;;;;;;10.07;3.70;;;10.30;67.50;;;;;;5035795;28;20552;-70
2021/03/11 05:08:01;;;;;;;8.30;3.87;;;10.30;67.60;;;;;;5040916;28;20516;-69
2021/03/11 05:10:27;;;;;;;7.57;4.07;;;10.30;67.70;;;;;;5045230;28;20439;-69
2021/03/11 05:12:53;;;;;;;9.37;3.83;;;10.30;67.90;;;;;;5043267;28;20442;-69
2021/03/11 05:15:19;;;;;;;11.27;3.80;;;10.30;68.00;;;;;;5033040;28;20193;-70
2021/03/11 05:17:45;;;;;;;8.87;4.00;;;10.30;68.00;;;;;;5045056;28;20204;-69
2021/03/11 05:20:12;;;;;;;6.80;3.50;;;10.30;68.20;;;;;;5041508;28;20433;-71
2021/03/11 05:22:38;;;;;;;9.13;3.97;;;10.30;68.30;;;;;;5031102;28;20254;-71
2021/03/11 05:25:07;;;;;;;8.80;3.60;;;10.30;68.30;;;;;;5031085;28;20582;-71
2021/03/11 05:27:33;;;;;;;7.03;3.97;;;10.30;68.30;;;;;;5042747;28;20185;-70
2021/03/11 05:29:59;;;;;;;6.23;3.37;;;10.30;68.50;;;;;;5063379;28;20430;-69
2021/03/11 05:32:25;;;;;;;5.47;3.50;;;10.30;68.60;;;;;;5058676;28;21106;-72
2021/03/11 05:34:50;;;;;;;8.07;4.50;;;10.30;68.60;;;;;;5050720;28;20299;-71
2021/03/11 05:37:16;;;;;;;5.20;3.10;;;10.20;69.10;;;;;;5039808;28;20574;-70
2021/03/11 05:39:42;;;;;;;7.73;4.40;;;10.20;69.50;;;;;;5045021;28;20199;-69
2021/03/11 05:42:12;;;;;;;7.20;3.60;;;10.20;69.50;;;;;;5042682;28;20208;-70
2021/03/11 05:44:38;;;;;;;7.17;3.80;;;10.20;69.70;;;;;;5036194;28;20203;-70
2021/03/11 05:47:07;;;;;;;5.90;3.33;;;10.20;69.80;;;;;;5039305;28;21011;-70
2021/03/11 05:49:35;;;;;;;6.80;3.80;;;10.10;70.10;;;;;;5044901;28;20440;-70
2021/03/11 05:52:04;;;;;;;5.67;3.67;;;10.20;70.20;;;;;;5043661;28;20449;-70
2021/03/11 05:54:31;;;;;;;7.90;3.87;;;10.10;70.40;;;;;;5028591;28;20446;-70
2021/03/11 05:56:56;;;;;;;6.33;3.83;;;10.10;70.70;;;;;;5043855;28;20430;-70
2021/03/11 05:59:23;;;;;;;6.27;3.30;;;10.10;70.70;;;;;;5025345;28;20427;-69
2021/03/11 06:01:51;;;;;;;8.83;3.70;;;10.20;70.80;;;;;;5038505;28;20546;-72
2021/03/11 06:04:17;;;;;;;8.33;3.00;;;10.20;70.70;;;;;;5043816;28;20428;-71
2021/03/11 06:06:44;;;;;;;5.97;3.23;;;10.30;70.70;;;;;;5044441;28;20501;-70
2021/03/11 06:09:11;;;;;;;5.10;3.50;;;10.30;70.70;;;;;;5051294;28;20434;-69
2021/03/11 06:11:38;;;;;;;5.33;2.70;;;10.30;70.70;;;;;;5051486;28;20523;-71
2021/03/11 06:14:06;;;;;;;7.03;3.63;;;10.30;70.50;;;;;;5043441;28;20444;-71
2021/03/11 06:16:34;;;;;;;8.80;3.50;;;10.30;70.80;;;;;;5042214;28;20443;-70
2021/03/11 06:19:00;;;;;;;11.57;3.50;;;10.30;71.10;;;;;;5039572;28;20510;-71
2021/03/11 06:21:25;;;;;;;6.03;3.40;;;10.30;71.30;;;;;;5023025;28;20435;-68
2021/03/11 06:23:51;;;;;;;8.93;3.73;;;10.30;71.30;;;;;;5038786;28;20450;-72
2021/03/11 06:26:17;;;;;;;5.97;3.20;;;10.30;71.10;;;;;;5032701;28;20217;-70
2021/03/11 06:28:45;;;;;;;7.77;3.40;;;10.40;71.10;;;;;;5041231;28;20449;-71
2021/03/11 06:31:23;;;;;;;6.47;3.43;;;10.30;71.10;;;;;;5054199;28;20192;-72
2021/03/11 06:33:51;;;;;;;12.93;3.60;;;10.40;71.00;;;;;;5035843;28;20539;-71
2021/03/11 06:36:17;;;;;;;8.10;3.27;;;10.40;70.70;;;;;;5034894;28;20447;-69
2021/03/11 06:38:43;;;;;;;7.00;3.40;;;10.40;70.40;;;;;;5049879;28;20446;-71
2021/03/11 06:41:09;;;;;;;5.10;2.80;;;10.40;70.20;;;;;;5052216;28;20439;-70
2021/03/11 06:43:51;;;;;;;5.93;3.20;;;10.50;69.90;;;;;;5045097;28;20691;-70
2021/03/11 06:46:17;;;;;;;4.70;3.20;;;10.60;69.40;;;;;;5043520;28;20459;-69
2021/03/11 06:48:45;;;;;;;7.60;2.70;;;10.70;69.10;;;;;;5030183;28;20432;-69
2021/03/11 06:51:20;;;;;;;5.90;2.80;;;10.70;68.50;;;;;;5051412;28;20510;-70
2021/03/11 06:53:57;;;;;;;4.00;2.60;;;10.80;68.20;;;;;;5037199;28;20442;-70
2021/03/11 06:56:24;;;;;;;13.20;4.00;;;10.90;67.60;;;;;;5039144;28;20476;-69
2021/03/11 06:59:05;;;;;;;5.53;2.90;;;10.90;67.50;;;;;;5036777;28;20785;-70
2021/03/11 07:01:33;;;;;;;4.27;2.53;;;10.90;67.50;;;;;;5044609;28;20434;-70
2021/03/11 07:04:01;;;;;;;3.97;2.50;;;10.90;67.20;;;;;;5036417;28;20439;-70
2021/03/11 07:06:32;;;;;;;8.00;3.40;;;11.00;67.00;;;;;;5032952;28;20563;-70
2021/03/11 07:08:58;;;;;;;6.43;2.43;;;11.00;67.00;;;;;;5048672;28;20430;-69
2021/03/11 07:11:25;;;;;;;4.10;2.20;;;11.00;66.90;;;;;;5044204;28;20426;-69
2021/03/11 07:13:54;;;;;;;5.63;2.43;;;11.10;66.70;;;;;;5038808;28;20436;-73
2021/03/11 07:16:22;;;;;;;5.17;2.80;;;11.10;66.70;;;;;;5028609;28;20463;-74
2021/03/11 07:18:49;;;;;;;5.87;2.73;;;11.10;66.60;;;;;;5036563;28;20423;-73
2021/03/11 07:21:39;;;;;;;9.63;2.73;;;11.20;66.60;;;;;;5025189;28;20431;-73
2021/03/11 07:24:05;;;;;;;5.90;3.00;;;11.20;66.70;;;;;;5019727;28;20593;-73
2021/03/11 07:26:31;;;;;;;5.63;2.57;;;11.20;66.70;;;;;;5029697;28;21049;-74
2021/03/11 07:29:17;;;;;;;11.20;3.00;;;11.30;66.60;;;;;;5041558;28;20192;-73
2021/03/11 07:31:44;;;;;;;9.27;2.40;;;11.30;66.60;;;;;;5018947;28;20178;-74
2021/03/11 07:34:11;;;;;;;5.60;2.60;;;11.40;66.40;;;;;;5043653;28;20450;-74
2021/03/11 07:36:38;;;;;;;5.30;2.83;;;11.40;66.60;;;;;;5033217;28;20454;-72
2021/03/11 07:39:08;;;;;;;7.87;2.77;;;11.40;66.60;;;;;;5031379;28;20777;-73
2021/03/11 07:41:33;;;;;;;5.57;2.43;;;11.50;66.70;;;;;;5036540;28;20881;-73
2021/03/11 07:44:00;;;;;;;3.63;2.40;;;11.40;66.70;;;;;;5037540;28;20527;-70
2021/03/11 07:46:25;;;;;;;6.50;2.47;;;11.50;66.90;;;;;;5045298;28;20209;-70
2021/03/11 07:48:51;;;;;;;3.93;2.60;;;11.50;66.90;;;;;;5048596;28;20457;-71
2021/03/11 07:51:18;;;;;;;4.07;2.20;;;11.50;66.90;;;;;;5041296;28;20468;-69
2021/03/11 07:53:45;;;;;;;6.67;2.23;;;11.60;66.90;;;;;;5040348;28;20534;-69
2021/03/11 07:56:11;;;;;;;5.93;1.77;;;11.60;66.90;;;;;;5040758;28;20472;-69
2021/03/11 07:58:37;;;;;;;5.60;2.00;;;11.70;66.60;;;;;;5030293;28;20430;-70
2021/03/11 08:01:08;;;;;;;4.03;2.10;;;11.70;66.70;;;;;;5033242;28;20424;-70
2021/03/11 08:03:37;;;;;;;3.60;2.10;;;11.70;66.70;;;;;;5047355;28;20447;-70
2021/03/11 08:06:25;;;;;;;2.40;1.70;;;11.80;66.60;;;;;;5051068;28;20462;-68
2021/03/11 08:08:51;;;;;;;3.03;2.30;;;11.80;66.60;;;;;;5039511;28;20453;-70
2021/03/11 08:11:52;;;;;;;4.13;2.10;;;11.90;66.40;;;;;;5042048;28;20494;-71
2021/03/11 08:14:20;;;;;;;6.00;2.20;;;12.00;66.10;;;;;;4980395;28;21005;-69
2021/03/11 08:16:46;;;;;;;40.13;3.20;;;11.90;66.10;;;;;;4974353;28;20430;-71
2021/03/11 08:19:34;;;;;;;4.63;2.60;;;12.00;65.70;;;;;;4971556;28;20439;-71
2021/03/11 08:22:00;;;;;;;4.80;2.13;;;12.00;65.80;;;;;;4975813;28;20433;-68
2021/03/11 08:24:46;;;;;;;4.03;2.50;;;12.10;65.60;;;;;;4977779;28;20438;-70
2021/03/11 08:27:30;;;;;;;5.17;2.63;;;12.20;65.30;;;;;;4990770;28;20426;-69
2021/03/11 08:29:57;;;;;;;8.30;2.40;;;12.20;65.00;;;;;;4970132;28;20430;-70
2021/03/11 08:32:47;;;;;;;3.53;1.90;;;12.30;64.80;;;;;;4971119;28;20473;-69
2021/03/11 08:35:28;;;;;;;4.43;2.13;;;12.30;64.80;;;;;;4981858;28;20419;-71
2021/03/11 08:37:55;;;;;;;3.40;1.87;;;12.30;64.50;;;;;;4973440;28;20437;-69
2021/03/11 08:40:52;;;;;;;6.57;2.17;;;12.40;64.20;;;;;;4990466;28;20466;-71
2021/03/11 08:46:05;;;;;;;4.27;2.00;;;12.70;63.70;;;;;;4985451;28;20923;-70
2021/03/11 08:48:47;;;;;;;4.53;2.30;;;12.80;63.40;;;;;;5013732;28;20427;-70
2021/03/11 08:51:18;;;;;;;7.23;1.90;;;12.70;63.40;;;;;;5032557;28;20420;-70
2021/03/11 08:53:51;;;;;;;4.50;2.20;;;12.80;63.50;;;;;;5031418;28;20471;-70
2021/03/11 08:56:16;;;;;;;3.40;1.83;;;12.80;63.90;;;;;;5019403;28;20969;-72
2021/03/11 08:59:11;;;;;;;5.43;2.17;;;12.80;64.20;;;;;;5031833;28;20436;-69
2021/03/11 09:01:52;;;;;;;5.80;2.10;;;12.90;64.70;;;;;;5045267;28;20280;-70
2021/03/11 09:04:21;;;;;;;4.10;1.93;;;12.90;65.30;;;;;;5024131;28;20416;-70
2021/03/11 09:07:28;;;;;;;6.70;1.80;;;12.90;65.30;;;;;;5048881;28;21008;-70
2021/03/11 09:09:54;;;;;;;3.70;1.70;;;12.90;65.60;;;;;;5037047;28;20416;-70
2021/03/11 09:12:30;;;;;;;3.40;1.90;;;13.10;65.30;;;;;;5038228;28;20454;-69
2021/03/11 09:14:58;;;;;;;3.10;1.77;;;13.10;65.30;;;;;;5037496;28;20189;-70
2021/03/11 09:17:26;;;;;;;2.87;1.67;;;13.20;65.10;;;;;;5045523;28;20424;-70
2021/03/11 09:20:06;;;;;;;3.47;2.00;;;13.20;64.70;;;;;;5032723;28;20435;-71
2021/03/11 09:22:35;;;;;;;1.60;1.40;;;13.20;64.70;;;;;;5021540;28;20464;-70
2021/03/11 09:25:17;;;;;;;4.63;1.97;;;13.40;64.20;;;;;;5040460;28;20984;-72
2021/03/11 09:27:56;;;;;;;2.80;2.10;;;13.40;63.80;;;;;;5044483;28;20508;-72
2021/03/11 09:30:28;;;;;;;4.43;1.80;;;13.50;63.70;;;;;;5019793;28;20796;-69
2021/03/11 09:32:54;;;;;;;4.93;2.10;;;13.60;63.40;;;;;;5043991;28;20438;-70
2021/03/11 09:35:24;;;;;;;2.20;1.30;;;13.60;63.20;;;;;;5038668;28;20430;-70
2021/03/11 09:37:54;;;;;;;3.80;1.50;;;13.50;63.10;;;;;;5038186;28;20416;-70
2021/03/11 09:40:40;;;;;;;4.53;1.90;;;13.60;63.10;;;;;;5042683;28;20412;-71
2021/03/11 09:43:21;;;;;;;2.57;1.50;;;13.60;63.10;;;;;;5045160;28;20829;-71
2021/03/11 09:46:17;;;;;;;2.40;1.70;;;13.70;62.50;;;;;;5044367;28;20957;-70
2021/03/11 09:48:44;;;;;;;4.77;1.67;;;13.80;62.00;;;;;;5032845;28;20523;-71
2021/03/11 09:51:21;;;;;;;3.33;1.40;;;13.80;62.00;;;;;;5054313;28;20421;-70
2021/03/11 09:53:49;;;;;;;2.30;1.60;;;13.90;62.00;;;;;;5039183;28;20534;-70
2021/03/11 09:56:31;;;;;;;4.50;2.00;;;13.90;62.00;;;;;;5029525;28;20442;-69
2021/03/11 09:59:02;;;;;;;3.10;1.40;;;14.00;62.20;;;;;;5054214;28;20514;-71
2021/03/11 10:01:32;;;;;;;1.90;1.60;;;14.00;62.00;;;;;;5041461;28;20415;-70
2021/03/11 10:03:59;;;;;;;3.17;1.40;;;14.10;61.90;;;;;;5037497;28;20501;-70
2021/03/11 10:06:27;;;;;;;2.20;1.37;;;14.10;62.00;;;;;;5039549;28;20472;-70
2021/03/11 10:08:55;;;;;;;2.40;1.50;;;14.00;62.50;;;;;;5043905;28;20974;-71
2021/03/11 10:11:40;;;;;;;6.10;1.30;;;14.00;62.90;;;;;;5042227;28;20522;-70
2021/03/11 10:14:17;;;;;;;3.40;1.70;;;14.00;63.10;;;;;;5043130;28;20519;-69
2021/03/11 10:16:48;;;;;;;1.93;1.27;;;14.10;63.10;;;;;;5044698;28;20825;-70
2021/03/11 10:19:17;;;;;;;3.70;1.30;;;14.30;62.90;;;;;;5040910;28;20428;-70
2021/03/11 10:22:04;;;;;;;2.50;1.47;;;14.40;62.80;;;;;;5017173;28;20504;-71
2021/03/11 10:24:30;;;;;;;2.50;1.30;;;14.50;62.20;;;;;;5040024;28;20414;-69
2021/03/11 10:26:56;;;;;;;3.83;1.60;;;14.70;61.60;;;;;;5030476;28;20510;-70
2021/03/11 10:29:25;;;;;;;2.97;1.60;;;14.80;61.60;;;;;;5044355;28;20423;-71
2021/03/11 10:32:04;;;;;;;1.80;1.10;;;14.80;61.70;;;;;;5053501;28;20420;-72
2021/03/11 10:34:43;;;;;;;3.10;1.20;;;14.70;62.30;;;;;;5036333;28;20420;-70
2021/03/11 10:37:13;;;;;;;4.77;1.43;;;14.60;62.90;;;;;;5042213;28;20498;-70
2021/03/11 10:39:51;;;;;;;2.67;1.40;;;14.50;63.80;;;;;;5046738;28;20435;-70
2021/03/11 10:42:17;;;;;;;5.40;1.30;;;14.50;64.10;;;;;;5039090;28;20444;-70
2021/03/11 10:44:55;;;;;;;2.27;1.10;;;14.60;64.10;;;;;;5048911;28;20465;-71
2021/03/11 10:47:21;;;;;;;2.53;1.13;;;14.60;64.50;;;;;;5038174;28;20260;-70
2021/03/11 10:49:46;;;;;;;11.70;1.70;;;14.60;65.00;;;;;;5043140;28;20990;-70
2021/03/11 10:52:18;;;;;;;6.07;1.30;;;14.60;65.10;;;;;;5044051;28;20277;-70
2021/03/11 10:54:45;;;;;;;5.70;2.10;;;14.50;65.60;;;;;;5029299;28;20183;-70
2021/03/11 10:57:16;;;;;;;2.60;1.23;;;14.50;65.80;;;;;;5044264;28;20423;-70
2021/03/11 10:59:51;;;;;;;2.07;1.20;;;14.50;66.10;;;;;;5038647;28;20518;-70
2021/03/11 11:02:18;;;;;;;4.27;2.03;;;14.40;67.00;;;;;;5046079;28;20435;-70
2021/03/11 11:04:44;;;;;;;2.57;1.30;;;14.20;68.00;;;;;;5038697;28;20415;-69
2021/03/11 11:07:11;;;;;;;2.53;1.40;;;14.10;69.10;;;;;;5032990;28;20435;-70
2021/03/11 11:09:36;;;;;;;2.70;1.40;;;14.00;70.40;;;;;;5030397;28;20390;-70
2021/03/11 11:12:06;;;;;;;4.30;1.80;;;13.90;71.70;;;;;;5029507;28;20431;-71
2021/03/11 11:14:31;;;;;;;1.93;1.33;;;13.90;73.60;;;;;;5029072;28;21262;-70
2021/03/11 11:16:57;;;;;;;3.83;1.70;;;13.70;75.50;;;;;;5034975;28;20422;-72
2021/03/11 11:19:23;;;;;;;2.17;1.27;;;13.40;78.70;;;;;;5038739;28;20208;-70
2021/03/11 11:21:49;;;;;;;1.63;1.10;;;13.20;81.20;;;;;;5020402;28;20192;-70
2021/03/11 11:24:15;;;;;;;2.40;1.23;;;13.00;82.50;;;;;;5038362;28;20208;-70
2021/03/11 11:26:42;;;;;;;3.30;1.30;;;12.90;84.00;;;;;;5042845;28;20243;-71
2021/03/11 11:29:08;;;;;;;1.63;1.10;;;12.70;84.60;;;;;;5040114;28;20172;-71
2021/03/11 11:31:33;;;;;;;3.13;1.63;;;12.60;85.60;;;;;;5036065;28;20419;-70
2021/03/11 11:33:59;;;;;;;5.97;1.60;;;12.60;85.70;;;;;;5038164;28;20308;-70
2021/03/11 11:36:25;;;;;;;7.03;1.40;;;12.50;86.80;;;;;;5045825;28;20180;-72
2021/03/11 11:38:52;;;;;;;5.57;1.60;;;12.50;87.60;;;;;;5049856;28;20567;-71
2021/03/11 11:41:19;;;;;;;4.10;1.70;;;12.40;88.30;;;;;;5049479;28;20243;-71
2021/03/11 11:43:45;;;;;;;3.23;1.70;;;12.40;88.00;;;;;;5049403;28;20446;-71
2021/03/11 11:46:11;;;;;;;2.33;1.43;;;12.40;88.00;;;;;;5048158;28;20454;-70
2021/03/11 11:48:37;;;;;;;4.13;1.40;;;12.30;88.40;;;;;;5050423;28;20442;-70
2021/03/11 11:51:03;;;;;;;6.60;1.43;;;12.30;89.50;;;;;;5031010;28;20185;-71
2021/03/11 11:53:29;;;;;;;3.50;1.20;;;12.30;89.50;;;;;;5041219;28;20470;-70
2021/03/11 11:55:55;;;;;;;2.40;1.10;;;12.30;90.00;;;;;;5043666;28;20509;-70
2021/03/11 11:58:21;;;;;;;4.43;1.40;;;12.30;89.70;;;;;;5042717;28;20712;-72
2021/03/11 12:00:47;;;;;;;2.90;1.57;;;12.20;90.30;;;;;;5046806;28;20420;-71
2021/03/11 12:03:13;;;;;;;1.23;1.00;;;12.20;90.50;;;;;;5044567;28;20258;-70
2021/03/11 12:05:39;;;;;;;1.90;1.27;;;12.20;90.30;;;;;;5037597;28;20871;-71
2021/03/11 12:08:05;;;;;;;1.73;1.10;;;12.30;90.30;;;;;;5049632;28;20418;-71
2021/03/11 12:10:31;;;;;;;5.43;1.27;;;12.40;89.70;;;;;;5030453;28;20272;-70
2021/03/11 12:12:56;;;;;;;2.67;1.27;;;12.50;88.90;;;;;;5041036;28;20485;-71
2021/03/11 12:15:22;;;;;;;8.20;1.67;;;12.60;89.00;;;;;;5031450;28;20694;-70
2021/03/11 12:17:48;;;;;;;7.13;1.30;;;12.60;89.20;;;;;;5029526;28;20629;-71
2021/03/11 12:20:14;;;;;;;2.50;1.20;;;12.70;88.70;;;;;;5028007;28;20515;-70
2021/03/11 12:22:40;;;;;;;2.77;1.40;;;12.60;88.60;;;;;;5026786;28;20240;-70
2021/03/11 12:25:06;;;;;;;2.73;1.20;;;12.60;88.60;;;;;;5037441;28;20506;-70
2021/03/11 12:27:32;;;;;;;2.50;1.10;;;12.50;89.20;;;;;;5037729;28;20189;-70
2021/03/11 12:29:59;;;;;;;2.90;1.20;;;12.50;89.60;;;;;;5046817;28;20500;-71
2021/03/11 12:32:25;;;;;;;1.20;0.93;;;12.60;89.60;;;;;;5041451;28;20447;-69
2021/03/11 12:34:51;;;;;;;1.73;1.10;;;12.60;89.50;;;;;;5030485;28;20422;-71
2021/03/11 12:37:17;;;;;;;5.10;1.20;;;12.60;89.20;;;;;;5036142;28;21120;-70
2021/03/11 12:39:43;;;;;;;2.20;1.37;;;12.80;87.80;;;;;;5030857;28;20824;-71
2021/03/11 12:42:09;;;;;;;2.30;1.30;;;12.90;87.10;;;;;;5036401;28;20825;-70
2021/03/11 12:44:35;;;;;;;3.40;1.17;;;13.10;86.50;;;;;;5032733;28;20842;-70
2021/03/11 12:47:01;;;;;;;2.03;1.10;;;13.20;85.50;;;;;;5038625;28;20515;-70
2021/03/11 12:49:27;;;;;;;4.10;0.93;;;13.30;84.70;;;;;;5046270;28;21235;-70
2021/03/11 12:51:53;;;;;;;2.20;1.10;;;13.30;84.60;;;;;;5045713;28;20514;-70
2021/03/11 12:54:19;;;;;;;1.53;0.93;;;13.30;84.60;;;;;;5037219;28;20455;-71
2021/03/11 12:56:45;;;;;;;2.60;1.20;;;13.50;84.40;;;;;;5045987;28;20266;-71